Time;durP1;ratioP1;P1;durP2;ratioP2;P2;SDS_P1;SDS_P2;PMS_P1;PMS_P2;Temp;Humidity;BMP_temperature;BMP_pressure;BME280_temperature;BME280_humidity;BME280_pressure;Samples;Min_cycle;Max_cycle;Signal;HPM_P1;HPM_P2
2020/12/22 00:00:49;;;;;;;129.63;88.93;;;;;;;;;;5091717;28;20059;-77
2020/12/22 00:03:54;;;;;;;121.10;83.45;;;;;;;;;;5079284;28;20066;-77
2020/12/22 00:06:58;;;;;;;116.43;83.57;;;;;;;;;;5091581;28;20054;-77
2020/12/22 00:10:03;;;;;;;120.93;80.05;;;;;;;;;;5091440;28;20047;-78
2020/12/22 00:13:08;;;;;;;117.57;79.95;;;;;;;;;;5079096;28;20047;-78
2020/12/22 00:16:19;;;;;;;110.78;78.05;;;;;;;;;;5079095;28;20063;-77
2020/12/22 00:19:23;;;;;;;120.85;79.55;;;;;;;;;;5091036;28;20423;-77
2020/12/22 00:22:28;;;;;;;112.00;75.03;;;;;;;;;;5091454;28;20063;-77
2020/12/22 00:25:32;;;;;;;110.00;73.32;;;;;;;;;;5078801;28;20043;-77
2020/12/22 00:28:36;;;;;;;109.82;77.78;;;;;;;;;;5091357;28;20047;-77
2020/12/22 00:31:41;;;;;;;112.47;76.05;;;;;;;;;;5091263;28;20495;-77
2020/12/22 00:34:45;;;;;;;117.72;76.90;;;;;;;;;;5090924;28;20039;-77
2020/12/22 00:37:49;;;;;;;111.20;76.05;;;;;;;;;;5091384;28;20506;-77
2020/12/22 00:40:54;;;;;;;107.85;73.85;;;;;;;;;;5078786;28;20047;-77
2020/12/22 00:43:58;;;;;;;115.30;77.20;;;;;;;;;;5091345;28;20047;-77
2020/12/22 00:47:02;;;;;;;113.93;78.88;;;;;;;;;;5078613;28;20039;-77
2020/12/22 00:50:07;;;;;;;114.20;75.10;;;;;;;;;;5091208;28;20043;-77
2020/12/22 00:53:11;;;;;;;113.15;75.43;;;;;;;;;;5078624;28;20039;-77
2020/12/22 00:56:15;;;;;;;113.18;74.93;;;;;;;;;;5090712;28;20391;-77
2020/12/22 00:59:22;;;;;;;115.63;78.00;;;;;;;;;;5078207;28;20078;-77
2020/12/22 01:02:27;;;;;;;112.78;76.90;;;;;;;;;;5094616;28;20039;-77
2020/12/22 01:05:31;;;;;;;113.28;76.13;;;;;;;;;;5094938;28;20165;-77
2020/12/22 01:08:35;;;;;;;111.47;75.43;;;;;;;;;;5082057;28;20043;-77
2020/12/22 01:11:40;;;;;;;122.85;79.35;;;;;;;;;;5094782;28;20055;-77
2020/12/22 01:14:44;;;;;;;120.45;79.00;;;;;;;;;;5094557;28;20055;-77
2020/12/22 01:17:49;;;;;;;113.70;78.13;;;;;;;;;;5082040;28;20515;-76
2020/12/22 01:20:53;;;;;;;122.78;82.25;;;;;;;;;;5094320;28;20050;-77
2020/12/22 01:23:57;;;;;;;119.00;78.20;;;;;;;;;;5094587;28;20035;-77
2020/12/22 01:27:02;;;;;;;123.70;81.70;;;;;;;;;;5094442;28;20051;-77
2020/12/22 01:30:06;;;;;;;124.07;80.93;;;;;;;;;;5094447;28;20043;-77
2020/12/22 01:33:10;;;;;;;124.90;81.07;;;;;;;;;;5081744;28;20416;-77
2020/12/22 01:36:15;;;;;;;123.47;81.60;;;;;;;;;;5081951;28;20040;-77
2020/12/22 01:39:19;;;;;;;123.45;77.50;;;;;;;;;;5094163;28;20047;-77
2020/12/22 01:42:23;;;;;;;114.53;76.50;;;;;;;;;;5094444;28;20039;-77
2020/12/22 01:45:27;;;;;;;126.22;78.85;;;;;;;;;;5081530;28;20526;-76
2020/12/22 01:48:33;;;;;;;125.25;83.68;;;;;;;;;;5093811;28;20054;-76
2020/12/22 01:51:37;;;;;;;122.78;82.22;;;;;;;;;;5094112;28;20043;-77
2020/12/22 01:54:42;;;;;;;122.45;77.40;;;;;;;;;;5093943;28;20051;-76
2020/12/22 01:57:46;;;;;;;119.53;75.90;;;;;;;;;;5093837;28;20043;-76
2020/12/22 02:00:51;;;;;;;121.32;77.90;;;;;;;;;;5081449;28;20054;-76
2020/12/22 02:03:55;;;;;;;123.20;78.97;;;;;;;;;;5081525;28;20043;-77
2020/12/22 02:07:00;;;;;;;123.43;76.75;;;;;;;;;;5093504;28;20043;-76
2020/12/22 02:10:04;;;;;;;113.97;77.95;;;;;;;;;;5081335;28;20043;-76
2020/12/22 02:13:09;;;;;;;123.13;78.32;;;;;;;;;;5092695;28;20042;-76
2020/12/22 02:16:13;;;;;;;113.57;73.80;;;;;;;;;;5093282;28;20047;-77
2020/12/22 02:19:18;;;;;;;109.22;71.70;;;;;;;;;;5080883;28;20118;-76
2020/12/22 02:22:22;;;;;;;109.78;72.60;;;;;;;;;;5093510;28;20427;-76
2020/12/22 02:25:27;;;;;;;111.38;69.85;;;;;;;;;;5093421;28;20043;-77
2020/12/22 02:28:32;;;;;;;109.35;71.60;;;;;;;;;;5093423;28;20039;-76
2020/12/22 02:31:36;;;;;;;104.85;69.35;;;;;;;;;;5092825;28;20503;-77
2020/12/22 02:34:40;;;;;;;100.78;68.53;;;;;;;;;;5080695;28;20047;-76
2020/12/22 02:37:44;;;;;;;107.18;69.53;;;;;;;;;;5080711;28;20059;-76
2020/12/22 02:40:49;;;;;;;107.50;68.97;;;;;;;;;;5080549;28;20407;-76
2020/12/22 02:43:53;;;;;;;102.78;67.32;;;;;;;;;;5092906;28;20039;-76
2020/12/22 02:46:57;;;;;;;111.88;74.25;;;;;;;;;;5092813;28;20051;-76
2020/12/22 02:50:01;;;;;;;102.97;71.30;;;;;;;;;;5093047;28;20054;-76
2020/12/22 02:53:06;;;;;;;103.90;69.50;;;;;;;;;;5080452;28;20055;-77
2020/12/22 02:56:10;;;;;;;102.60;68.10;;;;;;;;;;5092635;28;20387;-76
2020/12/22 02:59:14;;;;;;;105.00;70.47;;;;;;;;;;5092546;28;20055;-76
2020/12/22 03:02:19;;;;;;;102.57;64.93;;;;;;;;;;5092722;28;20051;-76
2020/12/22 03:05:23;;;;;;;105.50;68.72;;;;;;;;;;5092558;28;20499;-76
2020/12/22 03:08:27;;;;;;;96.32;65.32;;;;;;;;;;5092413;28;20055;-76
2020/12/22 03:11:32;;;;;;;96.82;64.15;;;;;;;;;;5092406;28;20051;-76
2020/12/22 03:14:36;;;;;;;95.50;63.97;;;;;;;;;;5092437;28;20043;-76
2020/12/22 03:17:40;;;;;;;88.10;60.20;;;;;;;;;;5092476;28;20043;-76
2020/12/22 03:20:44;;;;;;;88.90;58.80;;;;;;;;;;5092324;28;20522;-76
2020/12/22 03:23:49;;;;;;;90.80;58.97;;;;;;;;;;5092220;28;20035;-76
2020/12/22 03:26:53;;;;;;;83.75;56.17;;;;;;;;;;5092546;28;20093;-76
2020/12/22 03:29:58;;;;;;;83.90;54.67;;;;;;;;;;5092245;28;20051;-76
2020/12/22 03:33:02;;;;;;;85.50;55.05;;;;;;;;;;5092124;28;20055;-76
2020/12/22 03:36:06;;;;;;;79.40;54.10;;;;;;;;;;5092017;28;20063;-76
2020/12/22 03:39:11;;;;;;;87.80;54.08;;;;;;;;;;5079516;28;20055;-76
2020/12/22 03:42:15;;;;;;;81.82;56.72;;;;;;;;;;5092002;28;20391;-76
2020/12/22 03:45:19;;;;;;;90.13;56.65;;;;;;;;;;5091872;28;20047;-76
2020/12/22 03:48:25;;;;;;;78.53;53.20;;;;;;;;;;5079452;28;20047;-76
2020/12/22 03:51:29;;;;;;;82.63;51.45;;;;;;;;;;5091811;28;20043;-76
2020/12/22 03:54:34;;;;;;;74.07;50.35;;;;;;;;;;5067462;28;20051;-76
2020/12/22 03:57:38;;;;;;;84.82;54.78;;;;;;;;;;5079104;28;20043;-76
2020/12/22 04:00:42;;;;;;;82.00;53.00;;;;;;;;;;5091386;28;20070;-77
2020/12/22 04:03:47;;;;;;;80.20;50.25;;;;;;;;;;5091569;28;20039;-76
2020/12/22 04:06:51;;;;;;;75.38;48.55;;;;;;;;;;5091396;28;20391;-76
2020/12/22 04:09:55;;;;;;;73.32;46.72;;;;;;;;;;5091238;28;20518;-76
2020/12/22 04:13:00;;;;;;;72.10;46.15;;;;;;;;;;5091513;28;20471;-76
2020/12/22 04:16:05;;;;;;;68.18;45.25;;;;;;;;;;5091298;28;20043;-76
2020/12/22 04:19:09;;;;;;;65.78;46.05;;;;;;;;;;5091128;28;20043;-76
2020/12/22 04:22:14;;;;;;;74.45;48.38;;;;;;;;;;5091583;28;20047;-76
2020/12/22 04:25:18;;;;;;;66.25;43.97;;;;;;;;;;5090897;28;20043;-76
2020/12/22 04:28:23;;;;;;;69.03;43.70;;;;;;;;;;5078896;28;20395;-76
2020/12/22 04:31:27;;;;;;;68.53;43.20;;;;;;;;;;5078723;28;20051;-77
2020/12/22 04:34:31;;;;;;;67.40;44.67;;;;;;;;;;5090860;28;20039;-76
2020/12/22 04:37:35;;;;;;;74.07;45.75;;;;;;;;;;5090949;28;20086;-76
2020/12/22 04:40:39;;;;;;;67.65;42.95;;;;;;;;;;5090851;28;20541;-77
2020/12/22 04:43:44;;;;;;;66.60;42.30;;;;;;;;;;5091277;28;20388;-77
2020/12/22 04:46:52;;;;;;;70.03;45.58;;;;;;;;;;5091162;28;20039;-76
2020/12/22 04:50:00;;;;;;;70.68;42.97;;;;;;;;;;5090948;28;20031;-76
2020/12/22 04:53:04;;;;;;;72.57;42.85;;;;;;;;;;5091068;28;20039;-76
2020/12/22 04:56:08;;;;;;;64.72;41.33;;;;;;;;;;5090791;28;20043;-76
2020/12/22 04:59:14;;;;;;;70.55;45.38;;;;;;;;;;5078530;28;20075;-76
2020/12/22 05:02:19;;;;;;;71.70;44.33;;;;;;;;;;5078828;28;20055;-75
2020/12/22 05:05:23;;;;;;;70.30;44.17;;;;;;;;;;5078207;28;20043;-76
2020/12/22 05:08:27;;;;;;;67.18;44.05;;;;;;;;;;5078506;28;20043;-76
2020/12/22 05:11:36;;;;;;;76.82;44.38;;;;;;;;;;5090996;28;20054;-76
2020/12/22 05:14:41;;;;;;;85.75;41.95;;;;;;;;;;5078448;28;20059;-76
2020/12/22 05:17:46;;;;;;;68.38;41.88;;;;;;;;;;5078439;28;20048;-76
2020/12/22 05:20:51;;;;;;;65.43;39.83;;;;;;;;;;5090565;28;20059;-76
2020/12/22 05:23:55;;;;;;;63.28;39.40;;;;;;;;;;5090869;28;20055;-76
2020/12/22 05:27:00;;;;;;;59.60;40.25;;;;;;;;;;5090907;28;20046;-76
2020/12/22 05:30:05;;;;;;;58.00;37.05;;;;;;;;;;5090705;28;20482;-76
2020/12/22 05:33:09;;;;;;;64.55;40.22;;;;;;;;;;5078312;28;20330;-76
2020/12/22 05:36:14;;;;;;;64.75;40.80;;;;;;;;;;5090230;28;20043;-75
2020/12/22 05:39:19;;;;;;;66.15;40.42;;;;;;;;;;5090743;28;20122;-75
2020/12/22 05:42:24;;;;;;;64.30;39.20;;;;;;;;;;5090529;28;20502;-75
2020/12/22 05:45:32;;;;;;;59.00;38.72;;;;;;;;;;5090253;28;20043;-77
2020/12/22 05:48:37;;;;;;;62.30;39.35;;;;;;;;;;5092385;28;20046;-75
2020/12/22 05:51:45;;;;;;;62.53;38.22;;;;;;;;;;5081721;28;20055;-77
2020/12/22 05:54:55;;;;;;;57.80;36.85;;;;;;;;;;5094200;28;20044;-77
2020/12/22 05:58:10;;;;;;;67.20;38.00;;;;;;;;;;5094219;28;20216;-77
2020/12/22 06:01:14;;;;;;;62.97;38.22;;;;;;;;;;5093947;28;20055;-77
2020/12/22 06:04:18;;;;;;;65.68;38.13;;;;;;;;;;5093934;28;20383;-77
2020/12/22 06:07:23;;;;;;;66.05;38.28;;;;;;;;;;5093889;28;20043;-77
2020/12/22 06:10:28;;;;;;;61.88;37.35;;;;;;;;;;5093473;28;20069;-73
2020/12/22 06:13:32;;;;;;;59.92;38.42;;;;;;;;;;5093906;28;20047;-72
2020/12/22 06:16:37;;;;;;;69.72;39.42;;;;;;;;;;5093650;28;20278;-72
2020/12/22 06:19:41;;;;;;;50.38;33.63;;;;;;;;;;5093585;28;20047;-72
2020/12/22 06:22:46;;;;;;;61.80;35.60;;;;;;;;;;5093315;28;20067;-72
2020/12/22 06:25:50;;;;;;;72.75;43.22;;;;;;;;;;5093646;28;20047;-72
2020/12/22 06:28:55;;;;;;;63.17;38.60;;;;;;;;;;5093225;28;20035;-72
2020/12/22 06:32:17;;;;;;;68.43;32.97;;;;;;;;;;5093303;28;20059;-73
2020/12/22 06:35:30;;;;;;;61.88;33.78;;;;;;;;;;5093319;28;20055;-72
2020/12/22 06:38:43;;;;;;;94.40;54.92;;;;;;;;;;5080767;28;20043;-73
2020/12/22 06:41:48;;;;;;;78.18;42.50;;;;;;;;;;5093113;28;20392;-72
2020/12/22 06:44:52;;;;;;;79.53;42.80;;;;;;;;;;5092969;28;20059;-73
2020/12/22 06:47:57;;;;;;;63.05;38.17;;;;;;;;;;5092822;28;20058;-73
2020/12/22 06:51:20;;;;;;;61.67;37.60;;;;;;;;;;5093040;28;20058;-72
2020/12/22 06:54:28;;;;;;;64.90;38.33;;;;;;;;;;5079830;28;20392;-73
2020/12/22 06:57:42;;;;;;;60.55;35.42;;;;;;;;;;5080465;28;20054;-72
2020/12/22 07:00:47;;;;;;;62.47;35.83;;;;;;;;;;5092569;28;20066;-73
2020/12/22 07:03:51;;;;;;;68.57;36.22;;;;;;;;;;5092607;28;20039;-73
2020/12/22 07:07:02;;;;;;;63.72;39.28;;;;;;;;;;5092594;28;20055;-73
2020/12/22 07:10:06;;;;;;;60.70;38.20;;;;;;;;;;5092231;28;20510;-73
2020/12/22 07:13:12;;;;;;;74.95;40.63;;;;;;;;;;5092502;28;20039;-73
2020/12/22 07:16:18;;;;;;;80.68;44.13;;;;;;;;;;5092432;28;20051;-73
2020/12/22 07:19:29;;;;;;;84.72;47.58;;;;;;;;;;5091501;28;20043;-75
2020/12/22 07:22:34;;;;;;;75.88;44.75;;;;;;;;;;5068565;28;20063;-75
2020/12/22 07:25:39;;;;;;;67.40;41.75;;;;;;;;;;5068183;28;20494;-82
2020/12/22 07:28:43;;;;;;;69.03;39.75;;;;;;;;;;5092286;28;20051;-80
2020/12/22 07:31:48;;;;;;;87.07;43.90;;;;;;;;;;5092221;28;20039;-84
2020/12/22 07:34:52;;;;;;;90.30;44.58;;;;;;;;;;5092233;28;20217;-79
2020/12/22 07:38:07;;;;;;;69.53;43.58;;;;;;;;;;5091851;28;20074;-76
2020/12/22 07:41:11;;;;;;;98.57;48.35;;;;;;;;;;5079451;28;20051;-75
2020/12/22 07:44:22;;;;;;;81.95;44.70;;;;;;;;;;5091797;28;20051;-74
2020/12/22 07:47:26;;;;;;;105.60;50.20;;;;;;;;;;5091704;28;20051;-76
2020/12/22 07:50:31;;;;;;;109.35;57.30;;;;;;;;;;5079040;28;20031;-77
2020/12/22 07:53:35;;;;;;;106.35;55.92;;;;;;;;;;5091756;28;20062;-76
2020/12/22 07:56:41;;;;;;;131.60;63.35;;;;;;;;;;5092019;28;20051;-79
2020/12/22 07:59:45;;;;;;;115.78;69.13;;;;;;;;;;5079194;28;20503;-77
2020/12/22 08:02:49;;;;;;;136.45;70.15;;;;;;;;;;5092744;28;20102;-75
2020/12/22 08:06:00;;;;;;;128.43;70.68;;;;;;;;;;5091963;28;20054;-83
2020/12/22 08:09:05;;;;;;;123.85;69.40;;;;;;;;;;5091946;28;20039;-76
2020/12/22 08:12:10;;;;;;;121.32;68.07;;;;;;;;;;5091085;28;20534;-77
2020/12/22 08:15:14;;;;;;;127.57;74.93;;;;;;;;;;5078820;28;20137;-78
2020/12/22 08:18:18;;;;;;;122.88;72.15;;;;;;;;;;5091615;28;20495;-76
2020/12/22 08:21:24;;;;;;;122.93;68.78;;;;;;;;;;5090755;28;20059;-77
2020/12/22 08:24:29;;;;;;;102.70;64.25;;;;;;;;;;5091160;28;20043;-80
2020/12/22 08:27:33;;;;;;;109.30;62.30;;;;;;;;;;5090931;28;20047;-75
2020/12/22 08:30:37;;;;;;;100.80;66.10;;;;;;;;;;5091071;28;20035;-77
2020/12/22 08:33:41;;;;;;;99.13;61.55;;;;;;;;;;5090539;28;20051;-75
2020/12/22 08:36:46;;;;;;;107.60;64.90;;;;;;;;;;5091134;28;20043;-75
2020/12/22 08:39:50;;;;;;;111.35;66.43;;;;;;;;;;5091296;28;20047;-80
2020/12/22 08:42:54;;;;;;;94.07;60.75;;;;;;;;;;5091198;28;20067;-77
2020/12/22 08:45:59;;;;;;;91.72;59.05;;;;;;;;;;5090870;28;20039;-79
2020/12/22 08:49:14;;;;;;;75.80;52.78;;;;;;;;;;5091263;28;20039;-74
2020/12/22 08:52:19;;;;;;;85.43;55.00;;;;;;;;;;5090950;28;20047;-73
2020/12/22 08:55:25;;;;;;;89.22;58.10;;;;;;;;;;5066953;28;20411;-80
2020/12/22 08:58:29;;;;;;;93.68;60.28;;;;;;;;;;5091242;28;20042;-82
2020/12/22 09:01:49;;;;;;;92.43;61.72;;;;;;;;;;5090846;28;20051;-77
2020/12/22 09:04:53;;;;;;;94.55;59.83;;;;;;;;;;5090740;28;20051;-75
2020/12/22 09:07:59;;;;;;;89.82;59.03;;;;;;;;;;5091194;28;20063;-75
2020/12/22 09:11:03;;;;;;;94.55;64.47;;;;;;;;;;5090695;28;20047;-76
2020/12/22 09:14:07;;;;;;;93.03;62.15;;;;;;;;;;5090963;28;20047;-77
2020/12/22 09:17:12;;;;;;;92.13;63.40;;;;;;;;;;5090612;28;20526;-86
2020/12/22 09:20:24;;;;;;;84.30;58.20;;;;;;;;;;5090385;28;20059;-79
2020/12/22 09:23:28;;;;;;;83.23;57.03;;;;;;;;;;5095019;28;20067;-82
2020/12/22 09:26:32;;;;;;;84.80;55.72;;;;;;;;;;5094640;28;20391;-82
2020/12/22 09:29:37;;;;;;;70.22;51.70;;;;;;;;;;5094133;28;20039;-79
2020/12/22 09:32:43;;;;;;;75.50;51.70;;;;;;;;;;5094556;28;20047;-83
2020/12/22 09:35:47;;;;;;;83.93;57.63;;;;;;;;;;5082541;28;20047;-77
2020/12/22 09:38:54;;;;;;;78.95;53.65;;;;;;;;;;5094199;28;20395;-77
2020/12/22 09:41:59;;;;;;;75.28;52.22;;;;;;;;;;5081694;28;20502;-77
2020/12/22 09:45:03;;;;;;;62.03;43.33;;;;;;;;;;5094215;28;20051;-80
2020/12/22 09:48:08;;;;;;;72.70;49.05;;;;;;;;;;5092789;28;20097;-80
2020/12/22 09:51:16;;;;;;;73.80;50.63;;;;;;;;;;5081336;28;20046;-80
2020/12/22 09:54:20;;;;;;;75.28;51.80;;;;;;;;;;5094190;28;20106;-74
2020/12/22 09:57:25;;;;;;;82.00;48.42;;;;;;;;;;5094103;28;20039;-75
2020/12/22 10:00:29;;;;;;;67.57;46.78;;;;;;;;;;5093747;28;20066;-75
2020/12/22 10:03:33;;;;;;;67.15;41.72;;;;;;;;;;5093905;28;20051;-75
2020/12/22 10:06:38;;;;;;;55.70;39.28;;;;;;;;;;5093661;28;20043;-80
2020/12/22 10:09:42;;;;;;;57.55;41.30;;;;;;;;;;5094751;28;20055;-82
2020/12/22 10:12:47;;;;;;;58.67;40.63;;;;;;;;;;5093473;28;20423;-78
2020/12/22 10:15:51;;;;;;;59.08;39.88;;;;;;;;;;5081025;28;20043;-77
2020/12/22 10:18:55;;;;;;;60.35;40.90;;;;;;;;;;5093679;28;20039;-77
2020/12/22 10:22:00;;;;;;;51.60;38.80;;;;;;;;;;5093241;28;20407;-76
2020/12/22 10:25:04;;;;;;;54.60;37.30;;;;;;;;;;5093293;28;20039;-80
2020/12/22 10:28:08;;;;;;;52.40;37.78;;;;;;;;;;5093180;28;20035;-83
2020/12/22 10:31:17;;;;;;;58.53;39.53;;;;;;;;;;5094341;28;20526;-86
2020/12/22 10:34:23;;;;;;;54.25;39.92;;;;;;;;;;5092470;28;20102;-79
2020/12/22 10:37:27;;;;;;;53.95;37.75;;;;;;;;;;5094154;28;20051;-84
2020/12/22 10:40:32;;;;;;;52.05;37.38;;;;;;;;;;5092920;28;20321;-84
2020/12/22 10:43:37;;;;;;;59.75;40.83;;;;;;;;;;5093261;28;20038;-79
2020/12/22 10:46:45;;;;;;;65.88;41.03;;;;;;;;;;5094941;28;20384;-81
2020/12/22 10:49:50;;;;;;;60.10;39.60;;;;;;;;;;5093994;28;20035;-75
2020/12/22 10:52:54;;;;;;;50.92;37.25;;;;;;;;;;5092816;28;20043;-83
2020/12/22 10:55:59;;;;;;;51.90;37.88;;;;;;;;;;5092679;28;20051;-80
2020/12/22 10:59:03;;;;;;;51.30;37.08;;;;;;;;;;5080118;28;20055;-77
2020/12/22 11:02:07;;;;;;;47.63;36.78;;;;;;;;;;5092328;28;20055;-76
2020/12/22 11:05:12;;;;;;;57.25;39.08;;;;;;;;;;5092170;28;20427;-75
2020/12/22 11:08:17;;;;;;;51.92;35.55;;;;;;;;;;5092501;28;20042;-77
2020/12/22 11:11:21;;;;;;;50.53;36.30;;;;;;;;;;5079763;28;20039;-73
2020/12/22 11:14:26;;;;;;;49.55;36.97;;;;;;;;;;5092402;28;20043;-74
2020/12/22 11:17:30;;;;;;;48.97;34.65;;;;;;;;;;5079847;28;20062;-74
2020/12/22 11:20:36;;;;;;;46.53;35.92;;;;;;;;;;5091755;28;20502;-74
2020/12/22 11:23:40;;;;;;;49.30;36.17;;;;;;;;;;5079803;28;20051;-75
2020/12/22 11:26:44;;;;;;;52.17;36.38;;;;;;;;;;5092437;28;20047;-77
2020/12/22 11:29:48;;;;;;;47.15;33.55;;;;;;;;;;5079618;28;20146;-76
2020/12/22 11:32:53;;;;;;;53.08;37.67;;;;;;;;;;5092308;28;20047;-76
2020/12/22 11:35:57;;;;;;;49.45;35.40;;;;;;;;;;5092074;28;20051;-77
2020/12/22 11:39:01;;;;;;;51.03;38.42;;;;;;;;;;5092417;28;20039;-74
2020/12/22 11:42:05;;;;;;;50.28;36.40;;;;;;;;;;5091636;28;20055;-74
2020/12/22 11:45:10;;;;;;;44.45;30.50;;;;;;;;;;5091735;28;20039;-74
2020/12/22 11:48:14;;;;;;;36.53;27.17;;;;;;;;;;5091646;28;20518;-89
2020/12/22 11:51:19;;;;;;;38.50;26.70;;;;;;;;;;5091867;28;20047;-82
2020/12/22 11:54:23;;;;;;;35.80;28.60;;;;;;;;;;5092204;28;20047;-86
2020/12/22 11:57:28;;;;;;;52.83;38.42;;;;;;;;;;5092482;28;20031;-80
2020/12/22 12:00:32;;;;;;;67.05;42.83;;;;;;;;;;5067200;28;20043;-81
2020/12/22 12:03:36;;;;;;;62.20;43.17;;;;;;;;;;5092055;28;20047;-81
2020/12/22 12:06:47;;;;;;;60.92;44.78;;;;;;;;;;5091280;28;20195;-81
2020/12/22 12:09:52;;;;;;;63.92;43.35;;;;;;;;;;5091671;28;20491;-77
2020/12/22 12:12:56;;;;;;;57.17;42.60;;;;;;;;;;5091040;28;20271;-77
2020/12/22 12:16:01;;;;;;;58.22;39.03;;;;;;;;;;5090595;28;20067;-77
2020/12/22 12:19:05;;;;;;;73.05;49.72;;;;;;;;;;5091293;28;20055;-76
2020/12/22 12:22:09;;;;;;;115.43;78.53;;;;;;;;;;5090986;28;20055;-80
2020/12/22 12:25:14;;;;;;;65.57;48.65;;;;;;;;;;5091301;28;20059;-79
2020/12/22 12:28:19;;;;;;;56.05;40.50;;;;;;;;;;5091526;28;20054;-78
2020/12/22 12:31:24;;;;;;;48.75;35.90;;;;;;;;;;5078623;28;20051;-79
2020/12/22 12:46:32;;;;;;;48.47;33.55;;;16.50;78.80;;;;;;5108636;27;20738;-75
2020/12/22 12:49:36;;;;;;;42.88;31.40;;;16.20;79.60;;;;;;5108695;28;20032;-75
2020/12/22 12:52:40;;;;;;;39.95;30.05;;;16.20;79.00;;;;;;5095039;28;20043;-75
2020/12/22 12:55:47;;;;;;;44.67;30.13;;;16.10;78.40;;;;;;5095352;28;20047;-74
2020/12/22 12:58:51;;;;;;;47.10;31.02;;;16.10;78.40;;;;;;5107458;28;20043;-75
2020/12/22 13:01:55;;;;;;;37.75;27.77;;;16.10;78.40;;;;;;5106866;28;20505;-75
2020/12/22 13:05:05;;;;;;;42.80;29.58;;;16.10;78.40;;;;;;5107423;28;20038;-76
2020/12/22 13:08:09;;;;;;;138.98;63.47;;;16.10;77.90;;;;;;5108631;28;20039;-75
2020/12/22 13:11:13;;;;;;;65.95;42.38;;;16.10;82.50;;;;;;5107619;28;20042;-75
2020/12/22 13:14:17;;;;;;;124.00;51.40;;;16.10;80.10;;;;;;5108222;28;20415;-75
2020/12/22 13:17:21;;;;;;;83.40;51.60;;;16.00;83.00;;;;;;5108614;28;20055;-76
2020/12/22 13:20:25;;;;;;;58.20;39.17;;;16.00;81.70;;;;;;5107534;28;20042;-75
2020/12/22 13:23:30;;;;;;;48.35;34.22;;;16.00;80.00;;;;;;5107440;28;20510;-75
2020/12/22 13:26:41;;;;;;;50.10;33.35;;;15.90;79.30;;;;;;5107138;28;20051;-78
2020/12/22 13:29:45;;;;;;;;;;;15.90;79.40;;;;;;5108583;28;20047;-76
2020/12/22 13:32:49;;;;;;;69.95;40.33;;;15.90;80.90;;;;;;5107847;28;20071;-76
2020/12/22 13:35:53;;;;;;;55.60;35.83;;;15.90;80.10;;;;;;5086321;28;20047;-75
2020/12/22 13:38:57;;;;;;;48.95;34.63;;;15.80;79.90;;;;;;5087502;28;20422;-74
2020/12/22 13:42:01;;;;;;;48.22;34.47;;;15.80;79.50;;;;;;5086805;28;20047;-74
2020/12/22 13:45:05;;;;;;;50.90;35.15;;;15.80;79.60;;;;;;5086173;28;20063;-74
2020/12/22 13:48:10;;;;;;;51.25;35.28;;;15.80;79.70;;;;;;5073653;28;20047;-75
2020/12/22 13:51:14;;;;;;;52.05;34.28;;;15.70;79.80;;;;;;5074001;28;20044;-71
2020/12/22 13:54:18;;;;;;;58.55;38.53;;;15.70;79.70;;;;;;5072883;28;20479;-71
2020/12/22 13:57:22;;;;;;;55.40;38.08;;;15.70;79.90;;;;;;5073219;28;20039;-71
2020/12/22 14:00:26;;;;;;;54.30;35.25;;;15.70;80.20;;;;;;5072521;28;20035;-71
2020/12/22 14:03:30;;;;;;;48.83;34.78;;;15.70;80.30;;;;;;5072224;28;20040;-72
2020/12/22 14:06:34;;;;;;;40.50;30.42;;;15.70;80.20;;;;;;5084162;28;20039;-73
2020/12/22 14:09:38;;;;;;;35.63;27.08;;;15.70;79.70;;;;;;5072733;28;20734;-74
2020/12/22 14:12:42;;;;;;;38.20;27.25;;;15.60;79.40;;;;;;5070457;28;20043;-72
2020/12/22 14:15:46;;;;;;;36.42;25.42;;;15.70;79.20;;;;;;5072076;28;20515;-72
2020/12/22 14:18:54;;;;;;;36.10;24.95;;;15.60;79.10;;;;;;5072918;28;20044;-74
2020/12/22 14:21:58;;;;;;;42.50;29.05;;;15.70;79.30;;;;;;5073422;28;20399;-71
2020/12/22 14:25:02;;;;;;;56.00;35.90;;;15.60;79.60;;;;;;5072096;28;20490;-70
2020/12/22 14:28:07;;;;;;;46.40;33.38;;;15.60;79.60;;;;;;5073046;28;20044;-69
2020/12/22 14:31:11;;;;;;;53.90;39.90;;;15.60;79.70;;;;;;5071821;28;20047;-74
2020/12/22 14:34:16;;;;;;;61.42;43.85;;;15.60;79.80;;;;;;5072575;28;20604;-74
2020/12/22 14:37:19;;;;;;;63.10;44.17;;;15.60;80.40;;;;;;5072356;28;20085;-73
2020/12/22 14:40:23;;;;;;;76.90;50.75;;;15.60;80.70;;;;;;5071792;28;20043;-77
2020/12/22 14:43:27;;;;;;;72.95;51.88;;;15.60;81.00;;;;;;5070152;28;20047;-77
2020/12/22 14:46:31;;;;;;;65.72;47.13;;;15.60;81.30;;;;;;5072673;28;20543;-77
2020/12/22 14:49:35;;;;;;;73.57;49.50;;;15.50;81.60;;;;;;5072333;28;20047;-77
2020/12/22 14:52:41;;;;;;;66.45;47.50;;;15.50;81.40;;;;;;5072458;28;20043;-77
2020/12/22 14:55:45;;;;;;;71.65;48.80;;;15.50;81.50;;;;;;5072020;28;20507;-77
2020/12/22 14:58:49;;;;;;;68.50;46.33;;;15.40;81.80;;;;;;5071221;28;20043;-77
2020/12/22 15:02:00;;;;;;;69.88;44.92;;;15.40;82.00;;;;;;5072453;28;20054;-79
2020/12/22 15:05:05;;;;;;;65.68;43.17;;;15.40;82.40;;;;;;5072035;28;20063;-79
2020/12/22 15:08:09;;;;;;;60.60;42.00;;;15.40;82.50;;;;;;5072069;28;20044;-77
2020/12/22 15:11:14;;;;;;;63.95;41.20;;;15.30;82.30;;;;;;5071950;28;20056;-79
2020/12/22 15:14:19;;;;;;;67.72;43.95;;;15.30;82.30;;;;;;5072218;28;20063;-77
2020/12/22 15:17:23;;;;;;;74.85;46.25;;;15.30;82.50;;;;;;5072435;28;20063;-78
2020/12/22 15:20:27;;;;;;;74.22;46.83;;;15.20;82.40;;;;;;5072380;28;20043;-78
2020/12/22 15:23:31;;;;;;;67.85;44.70;;;15.20;82.50;;;;;;5072009;28;20052;-78
2020/12/22 15:26:35;;;;;;;72.28;43.95;;;15.10;82.50;;;;;;5071611;28;20035;-78
2020/12/22 15:29:40;;;;;;;67.45;42.97;;;15.10;82.90;;;;;;5071804;28;20055;-78
2020/12/22 15:32:46;;;;;;;73.07;44.33;;;15.00;83.00;;;;;;5070481;28;20040;-78
2020/12/22 15:35:50;;;;;;;72.05;44.50;;;15.00;83.00;;;;;;5071571;28;20051;-78
2020/12/22 15:38:54;;;;;;;70.90;44.67;;;14.90;83.00;;;;;;5071485;28;20043;-78
2020/12/22 15:41:59;;;;;;;84.85;47.33;;;14.90;83.30;;;;;;5071185;28;20047;-78
2020/12/22 15:45:05;;;;;;;87.95;48.53;;;14.90;83.40;;;;;;5071029;28;20055;-78
2020/12/22 15:48:09;;;;;;;80.82;49.80;;;14.80;83.60;;;;;;5071755;28;20499;-78
2020/12/22 15:51:17;;;;;;;85.75;52.50;;;14.70;83.80;;;;;;5071463;28;20039;-78
2020/12/22 15:54:21;;;;;;;114.72;56.40;;;14.70;84.00;;;;;;5082488;28;20063;-73
2020/12/22 15:57:25;;;;;;;101.28;56.58;;;14.60;84.20;;;;;;5071244;28;20519;-72
2020/12/22 16:00:29;;;;;;;99.05;56.10;;;14.60;84.60;;;;;;5067733;28;20043;-72
2020/12/22 16:03:32;;;;;;;101.22;58.05;;;14.60;85.10;;;;;;5070750;28;20047;-72
2020/12/22 16:06:42;;;;;;;107.78;60.42;;;14.50;85.50;;;;;;5071067;28;20047;-72
2020/12/22 16:09:47;;;;;;;97.35;60.35;;;14.50;85.80;;;;;;5070862;28;20052;-72
2020/12/22 16:12:51;;;;;;;105.45;57.25;;;14.40;86.00;;;;;;5070875;28;20064;-71
2020/12/22 16:15:55;;;;;;;103.38;59.45;;;14.30;86.40;;;;;;5070891;28;20594;-72
2020/12/22 16:18:59;;;;;;;102.60;56.58;;;14.30;86.70;;;;;;5070351;28;20051;-72
2020/12/22 16:22:04;;;;;;;97.18;55.85;;;14.30;86.70;;;;;;5069972;28;20067;-71
2020/12/22 16:25:09;;;;;;;97.38;57.85;;;14.30;86.90;;;;;;5070509;28;20039;-72
2020/12/22 16:28:13;;;;;;;104.93;58.72;;;14.20;87.10;;;;;;5070912;28;20056;-72
2020/12/22 16:31:17;;;;;;;111.82;64.13;;;14.20;87.00;;;;;;5071083;28;20506;-72
2020/12/22 16:34:21;;;;;;;114.88;60.53;;;14.10;87.10;;;;;;5070571;28;20489;-72
2020/12/22 16:37:26;;;;;;;99.15;59.63;;;14.10;87.20;;;;;;5069956;28;20055;-72
2020/12/22 16:40:30;;;;;;;113.10;63.35;;;14.00;87.10;;;;;;5071096;28;20047;-72
2020/12/22 16:43:33;;;;;;;117.00;64.78;;;14.00;87.10;;;;;;5070168;28;20063;-72
2020/12/22 16:46:37;;;;;;;128.50;69.03;;;14.00;87.10;;;;;;5069778;28;20060;-72
2020/12/22 16:49:41;;;;;;;121.35;69.05;;;13.90;87.60;;;;;;5070477;28;20040;-72
2020/12/22 16:52:45;;;;;;;122.60;67.32;;;13.80;87.80;;;;;;5070504;28;20044;-71
2020/12/22 16:55:52;;;;;;;119.07;68.60;;;13.80;88.20;;;;;;5069700;28;20052;-71
2020/12/22 16:58:56;;;;;;;125.95;70.35;;;13.70;88.10;;;;;;5070612;28;20503;-72
2020/12/22 17:02:02;;;;;;;136.18;71.53;;;13.70;88.40;;;;;;5070270;28;20047;-72
2020/12/22 17:05:06;;;;;;;136.80;70.32;;;13.70;88.70;;;;;;5070442;28;20040;-72
2020/12/22 17:08:10;;;;;;;145.52;74.07;;;13.60;88.80;;;;;;5070466;28;20051;-72
2020/12/22 17:11:23;;;;;;;132.40;73.05;;;13.60;89.00;;;;;;5070094;28;20047;-71
2020/12/22 17:14:27;;;;;;;132.95;71.60;;;13.50;89.20;;;;;;5070156;28;20506;-72
2020/12/22 17:17:32;;;;;;;121.30;66.43;;;13.40;89.50;;;;;;5070078;28;20063;-72
2020/12/22 17:20:37;;;;;;;132.00;67.75;;;13.40;89.50;;;;;;5070066;28;20044;-71
2020/12/22 17:23:41;;;;;;;130.90;67.25;;;13.30;89.60;;;;;;5073942;28;20535;-71